Brookhaven Weather

Current Time: 05:06 Zulu

HWV METARs

Local Time Temperature Dew Point Wind Direction Wind Speed Wind Gust Sky Vis.
6/28/2017 4:56:00 AM 14.4° c 13.3° c variable 0 kt - CLR 10.0 sm
6/28/2017 3:56:00 AM 16.7° c 13.9° c variable 0 kt - FEW 11000 ft AGL 10.0 sm
6/28/2017 2:56:00 AM 16.1° c 14.4° c variable 0 kt - CLR 10.0 sm
6/28/2017 1:56:00 AM 16.7° c 14.4° c variable 0 kt - CLR 10.0 sm

ISP TAF:

KISP 280231Z 2803/2824 30006KT P6SM FEW060 
FM281700 28012G19KT P6SM SKC 
FM282100 25011G18KT P6SM FEW060
Weather data provided by aviationweather.gov. Pilots must verify weather before flying.